Time;durP1;ratioP1;P1;durP2;ratioP2;P2;SDS_P1;SDS_P2;PMS_P1;PMS_P2;Temp;Humidity;BMP_temperature;BMP_pressure;BME280_temperature;BME280_humidity;BME280_pressure;Samples;Min_cycle;Max_cycle;Signal;HPM_P1;HPM_P2
2022/06/01 00:01:48;;;;;;;5.70;4.00;;;10.50;99.90;;;;;;5008559;28;20048;-57
2022/06/01 00:04:15;;;;;;;6.13;3.35;;;10.50;99.90;;;;;;5007544;28;20176;-61
2022/06/01 00:06:40;;;;;;;5.57;4.38;;;10.40;99.90;;;;;;5003854;28;20505;-61
2022/06/01 00:09:06;;;;;;;7.05;4.13;;;10.30;99.90;;;;;;5002022;28;20108;-61
2022/06/01 00:11:32;;;;;;;5.20;4.22;;;10.20;99.90;;;;;;4998965;28;20164;-61
2022/06/01 00:13:57;;;;;;;9.00;4.43;;;10.10;99.90;;;;;;5008686;28;20057;-61
2022/06/01 00:16:23;;;;;;;8.77;5.00;;;10.00;99.90;;;;;;5008806;28;20045;-61
2022/06/01 00:18:49;;;;;;;6.38;4.35;;;10.00;99.90;;;;;;4988442;28;20049;-61
2022/06/01 00:21:14;;;;;;;6.32;4.50;;;9.90;99.90;;;;;;5005727;28;20036;-61
2022/06/01 00:23:40;;;;;;;5.82;4.65;;;9.90;99.90;;;;;;5005727;28;20029;-61
2022/06/01 00:26:06;;;;;;;8.38;4.95;;;9.80;99.90;;;;;;5006950;28;20050;-60
2022/06/01 00:28:32;;;;;;;9.10;5.10;;;9.70;99.90;;;;;;5009064;28;20026;-60
2022/06/01 00:30:57;;;;;;;7.80;5.10;;;9.70;99.90;;;;;;5007131;28;20068;-60
2022/06/01 00:33:23;;;;;;;6.28;4.78;;;9.60;99.90;;;;;;5003218;28;20092;-60
2022/06/01 00:35:49;;;;;;;9.65;4.72;;;9.50;99.90;;;;;;5022308;28;20034;-61
2022/06/01 00:38:16;;;;;;;8.80;6.07;;;9.50;99.90;;;;;;5002845;28;20041;-61
2022/06/01 00:40:42;;;;;;;9.23;6.10;;;9.50;99.90;;;;;;5008350;28;20133;-58
2022/06/01 00:43:21;;;;;;;11.15;6.97;;;9.40;99.90;;;;;;5001872;28;20579;-61
2022/06/01 00:45:47;;;;;;;12.50;6.53;;;9.40;99.90;;;;;;5005426;28;20037;-60
2022/06/01 00:48:13;;;;;;;12.48;8.15;;;9.40;99.90;;;;;;5004993;28;20431;-61
2022/06/01 00:50:42;;;;;;;11.50;7.93;;;9.40;99.90;;;;;;5003375;28;20088;-61
2022/06/01 00:53:30;;;;;;;11.40;7.47;;;9.40;99.90;;;;;;4998208;28;20084;-61
2022/06/01 00:56:05;;;;;;;12.10;7.47;;;9.40;99.90;;;;;;4984033;28;20026;-60
2022/06/01 00:58:37;;;;;;;10.23;8.02;;;9.40;99.90;;;;;;5003968;28;20416;-60
2022/06/01 01:01:05;;;;;;;14.55;8.27;;;9.40;99.90;;;;;;5000161;28;20034;-61
2022/06/01 01:03:34;;;;;;;13.68;8.82;;;9.30;99.90;;;;;;5004546;28;20125;-60
2022/06/01 01:06:26;;;;;;;12.05;9.20;;;9.30;99.90;;;;;;4997087;28;20030;-60
2022/06/01 01:08:53;;;;;;;10.88;8.55;;;9.20;99.90;;;;;;5000120;28;20045;-60
2022/06/01 01:11:31;;;;;;;14.32;8.27;;;9.20;99.90;;;;;;5000630;28;20502;-61
2022/06/01 01:13:58;;;;;;;13.05;10.05;;;9.20;99.90;;;;;;5002655;28;20030;-61
2022/06/01 01:16:25;;;;;;;12.25;9.70;;;9.10;99.90;;;;;;5001494;28;20057;-60
2022/06/01 01:18:52;;;;;;;14.25;9.88;;;9.10;99.90;;;;;;4999569;28;20035;-58
2022/06/01 01:21:33;;;;;;;13.10;9.55;;;9.10;99.90;;;;;;5005944;28;20037;-61
2022/06/01 01:24:26;;;;;;;12.38;9.32;;;9.00;99.90;;;;;;5003634;28;20052;-58
2022/06/01 01:26:52;;;;;;;12.20;9.02;;;9.10;99.90;;;;;;4996949;28;20412;-60
2022/06/01 01:29:35;;;;;;;14.15;9.63;;;9.00;99.90;;;;;;5000541;28;20050;-61
2022/06/01 01:32:01;;;;;;;15.35;9.45;;;9.00;99.90;;;;;;5000159;28;20110;-61
2022/06/01 01:34:28;;;;;;;13.68;9.13;;;9.00;99.90;;;;;;5004822;28;20039;-60
2022/06/01 01:36:59;;;;;;;11.48;8.98;;;9.00;99.90;;;;;;5006028;28;20037;-61
2022/06/01 01:39:28;;;;;;;11.40;7.82;;;8.90;99.90;;;;;;5008173;28;20030;-60
2022/06/01 01:41:54;;;;;;;13.75;8.30;;;8.90;99.90;;;;;;5002181;28;20026;-57
2022/06/01 01:44:22;;;;;;;9.68;8.18;;;8.80;99.90;;;;;;5005411;28;20041;-60
2022/06/01 01:46:49;;;;;;;11.73;8.68;;;8.80;99.90;;;;;;5007257;28;20029;-61
2022/06/01 01:49:16;;;;;;;13.77;8.10;;;8.70;99.90;;;;;;5003876;28;20140;-60
2022/06/01 01:51:43;;;;;;;13.20;9.05;;;8.70;99.90;;;;;;5003383;28;20022;-60
2022/06/01 01:54:23;;;;;;;10.98;7.82;;;8.70;99.90;;;;;;5009523;28;20483;-60
2022/06/01 01:57:14;;;;;;;10.85;7.75;;;8.60;99.90;;;;;;5002768;28;20105;-61
2022/06/01 01:59:53;;;;;;;10.65;7.82;;;8.60;99.90;;;;;;5003633;28;20030;-61
2022/06/01 02:02:42;;;;;;;11.07;8.57;;;8.60;99.90;;;;;;5006619;28;20465;-60
2022/06/01 02:08:06;;;;;;;13.02;8.38;;;8.50;99.90;;;;;;5005592;28;20133;-61
2022/06/01 02:13:18;;;;;;;12.30;8.80;;;8.40;99.90;;;;;;5006210;28;20076;-56
2022/06/01 02:15:47;;;;;;;18.88;10.27;;;8.40;99.90;;;;;;5009544;28;20057;-61
2022/06/01 02:18:19;;;;;;;13.73;10.93;;;8.30;99.90;;;;;;5008401;28;20088;-59
2022/06/01 02:20:50;;;;;;;14.95;10.00;;;8.40;99.90;;;;;;5002198;28;20443;-60
2022/06/01 02:23:16;;;;;;;11.75;9.25;;;8.40;99.90;;;;;;5004655;28;20069;-61
2022/06/01 02:25:45;;;;;;;12.68;10.25;;;8.30;99.90;;;;;;5008330;28;20026;-61
2022/06/01 02:28:11;;;;;;;15.52;10.95;;;8.30;99.90;;;;;;5007409;28;20126;-59
2022/06/01 02:30:42;;;;;;;15.75;10.05;;;8.30;99.90;;;;;;5008631;28;20105;-59
2022/06/01 02:33:13;;;;;;;15.00;9.43;;;8.20;99.90;;;;;;5010997;28;20018;-60
2022/06/01 02:35:42;;;;;;;16.45;10.95;;;8.20;99.90;;;;;;5007447;28;20037;-59
2022/06/01 02:38:12;;;;;;;20.15;10.93;;;8.20;99.90;;;;;;5000949;28;20095;-61
2022/06/01 02:40:38;;;;;;;14.35;10.32;;;8.20;99.90;;;;;;5008985;28;20065;-61
2022/06/01 02:43:04;;;;;;;16.02;10.50;;;8.20;99.90;;;;;;5009149;28;20062;-61
2022/06/01 02:45:30;;;;;;;14.10;9.98;;;8.20;99.90;;;;;;5007259;28;20033;-59
2022/06/01 02:47:59;;;;;;;15.60;10.25;;;8.20;99.90;;;;;;5009903;28;20075;-60
2022/06/01 02:50:29;;;;;;;15.38;10.10;;;8.10;99.90;;;;;;5008061;28;20399;-60
2022/06/01 02:52:55;;;;;;;17.83;11.75;;;8.10;99.90;;;;;;5006044;28;20487;-60
2022/06/01 02:55:22;;;;;;;13.57;11.13;;;8.00;99.90;;;;;;5008757;28;20041;-61
2022/06/01 02:57:49;;;;;;;13.70;10.25;;;8.00;99.90;;;;;;5003570;28;20033;-61
2022/06/01 03:00:37;;;;;;;12.80;10.30;;;8.00;99.90;;;;;;5005379;28;20030;-59
2022/06/01 03:03:05;;;;;;;16.13;10.80;;;7.90;99.90;;;;;;5008416;28;20030;-61
2022/06/01 03:05:34;;;;;;;16.67;11.38;;;7.90;99.90;;;;;;4984499;28;20051;-61
2022/06/01 03:08:00;;;;;;;14.05;10.85;;;7.90;99.90;;;;;;4982260;28;20119;-61
2022/06/01 03:10:27;;;;;;;19.15;12.02;;;7.90;99.90;;;;;;4980298;28;20029;-61
2022/06/01 03:12:53;;;;;;;18.10;12.88;;;7.90;99.90;;;;;;4982001;28;20110;-61
2022/06/01 03:15:22;;;;;;;19.05;12.60;;;7.90;99.90;;;;;;4989155;28;20061;-61
2022/06/01 03:17:48;;;;;;;16.83;12.13;;;7.80;99.90;;;;;;4986237;28;20045;-59
2022/06/01 03:20:15;;;;;;;14.75;11.30;;;7.80;99.90;;;;;;4984213;28;20022;-61
2022/06/01 03:22:41;;;;;;;14.32;11.10;;;7.80;99.90;;;;;;4991117;28;20022;-62
2022/06/01 03:25:14;;;;;;;13.98;10.75;;;7.80;99.90;;;;;;4985834;28;20396;-61
2022/06/01 03:27:39;;;;;;;22.83;11.07;;;7.70;99.90;;;;;;4982205;28;20026;-61
2022/06/01 03:30:08;;;;;;;13.52;9.80;;;7.70;99.90;;;;;;4990792;28;20034;-61
2022/06/01 03:32:34;;;;;;;16.27;10.65;;;7.70;99.90;;;;;;4988819;28;20022;-62
2022/06/01 03:34:59;;;;;;;14.57;11.00;;;7.70;99.90;;;;;;4983781;28;20038;-61
2022/06/01 03:37:25;;;;;;;17.02;10.27;;;7.70;99.90;;;;;;4989548;28;20038;-60
2022/06/01 03:39:51;;;;;;;16.48;9.80;;;7.70;99.90;;;;;;4990631;28;20026;-61
2022/06/01 03:42:16;;;;;;;14.25;10.95;;;7.70;99.90;;;;;;4986928;28;20102;-62
2022/06/01 03:47:27;;;;;;;15.13;9.52;;;7.80;99.90;;;;;;4990484;28;20033;-61
2022/06/01 03:49:53;;;;;;;14.38;9.45;;;7.80;99.90;;;;;;4985562;28;20065;-60
2022/06/01 03:52:19;;;;;;;14.68;9.77;;;7.80;99.90;;;;;;4987826;28;20474;-60
2022/06/01 03:54:45;;;;;;;13.05;8.60;;;7.90;99.90;;;;;;4987124;28;20029;-60
2022/06/01 03:57:12;;;;;;;10.80;8.48;;;7.90;99.90;;;;;;4983951;28;20030;-61
2022/06/01 03:59:38;;;;;;;13.43;8.10;;;8.00;99.90;;;;;;4985301;28;20431;-61
2022/06/01 04:02:05;;;;;;;11.85;8.52;;;8.00;99.90;;;;;;4987354;28;20034;-62
2022/06/01 04:04:32;;;;;;;13.98;8.68;;;8.00;99.90;;;;;;4985098;28;20696;-61
2022/06/01 04:06:58;;;;;;;13.50;8.85;;;8.10;99.90;;;;;;4987997;28;20439;-61
2022/06/01 04:09:24;;;;;;;13.70;8.15;;;8.10;99.90;;;;;;4988722;28;20031;-60
2022/06/01 04:11:51;;;;;;;12.68;8.07;;;8.20;99.90;;;;;;4984565;28;20028;-61
2022/06/01 04:14:20;;;;;;;11.32;7.70;;;8.30;99.90;;;;;;4981130;28;20050;-62
2022/06/01 04:16:47;;;;;;;11.25;7.05;;;8.30;99.90;;;;;;4988345;28;20043;-61
2022/06/01 04:19:13;;;;;;;9.50;7.60;;;8.40;99.90;;;;;;4975066;28;20049;-59
2022/06/01 04:21:42;;;;;;;12.98;7.90;;;8.40;99.90;;;;;;4991399;28;20036;-61
2022/06/01 04:24:12;;;;;;;10.70;7.15;;;8.50;99.90;;;;;;4986072;28;20038;-61
2022/06/01 04:26:38;;;;;;;9.60;6.80;;;8.50;99.90;;;;;;4982547;28;20038;-62
2022/06/01 04:29:04;;;;;;;14.85;7.00;;;8.50;99.90;;;;;;4988858;28;20070;-61
2022/06/01 04:31:30;;;;;;;8.95;6.72;;;8.70;99.90;;;;;;4991368;28;20125;-61
2022/06/01 04:33:55;;;;;;;6.05;4.38;;;9.60;99.90;;;;;;4987211;28;20467;-61
2022/06/01 04:36:21;;;;;;;9.52;4.93;;;11.00;99.90;;;;;;4981115;28;20026;-62
2022/06/01 04:38:47;;;;;;;12.13;4.13;;;12.80;99.90;;;;;;4984624;28;20435;-62
2022/06/01 04:41:12;;;;;;;6.43;4.05;;;14.00;99.90;;;;;;4983277;28;20078;-62
2022/06/01 04:43:38;;;;;;;5.95;4.38;;;15.20;99.90;;;;;;4992560;28;20085;-62
2022/06/01 04:46:03;;;;;;;4.45;3.67;;;15.90;99.90;;;;;;4990616;28;20037;-62
2022/06/01 04:48:29;;;;;;;6.32;3.00;;;16.50;99.90;;;;;;4976349;28;20030;-62
2022/06/01 04:50:56;;;;;;;3.47;2.83;;;17.10;99.90;;;;;;4980526;28;20392;-60
2022/06/01 04:53:22;;;;;;;3.55;3.10;;;17.60;98.90;;;;;;4978080;28;20026;-60
2022/06/01 04:55:48;;;;;;;4.70;2.80;;;18.40;97.50;;;;;;4984971;28;20617;-60
2022/06/01 04:58:14;;;;;;;4.32;2.67;;;18.70;94.70;;;;;;4981453;28;20037;-60
2022/06/01 05:00:41;;;;;;;3.47;2.33;;;18.80;94.30;;;;;;4982245;28;20026;-60
2022/06/01 05:03:07;;;;;;;3.05;2.63;;;19.00;94.00;;;;;;4984328;28;20034;-60
2022/06/01 05:05:37;;;;;;;3.75;2.40;;;19.40;93.00;;;;;;4978691;28;20037;-60
2022/06/01 05:08:05;;;;;;;3.17;2.10;;;20.20;92.00;;;;;;4981556;28;20026;-60
2022/06/01 05:10:31;;;;;;;5.50;2.35;;;21.70;88.90;;;;;;4987359;28;20192;-56
2022/06/01 05:12:56;;;;;;;3.80;2.03;;;22.60;82.10;;;;;;4990053;28;20491;-60
2022/06/01 05:15:22;;;;;;;4.68;1.95;;;23.50;78.30;;;;;;4983233;28;20033;-60
2022/06/01 05:17:47;;;;;;;3.72;2.28;;;23.90;74.10;;;;;;4985435;28;20032;-61
2022/06/01 05:20:13;;;;;;;5.70;2.10;;;23.50;74.00;;;;;;4970587;28;20423;-61
2022/06/01 05:22:40;;;;;;;2.92;1.98;;;22.50;76.00;;;;;;4983798;28;20026;-60
2022/06/01 05:25:07;;;;;;;3.30;1.90;;;23.00;77.40;;;;;;4985849;28;20034;-60
2022/06/01 05:27:32;;;;;;;5.57;2.00;;;23.00;75.00;;;;;;4987100;28;20026;-60
2022/06/01 05:29:58;;;;;;;3.88;1.73;;;22.70;77.20;;;;;;4981333;28;20085;-61
2022/06/01 05:32:24;;;;;;;5.80;2.05;;;24.20;73.60;;;;;;4989210;28;20027;-59
2022/06/01 05:34:50;;;;;;;2.95;2.10;;;25.20;69.10;;;;;;4980701;28;20673;-59
2022/06/01 05:37:15;;;;;;;2.22;1.80;;;24.70;69.20;;;;;;4985824;28;20034;-60
2022/06/01 05:39:41;;;;;;;2.42;2.03;;;24.70;70.10;;;;;;4985419;28;20058;-60
2022/06/01 05:42:07;;;;;;;3.20;1.80;;;25.00;69.00;;;;;;4988638;28;20065;-60
2022/06/01 05:44:33;;;;;;;4.75;1.98;;;24.30;70.40;;;;;;4984361;28;20039;-61
2022/06/01 05:47:00;;;;;;;2.67;1.83;;;24.70;68.50;;;;;;4990518;28;20049;-60
2022/06/01 05:49:26;;;;;;;5.68;2.28;;;24.00;68.40;;;;;;4989559;28;20061;-60
2022/06/01 05:51:51;;;;;;;4.03;2.05;;;23.40;70.20;;;;;;4986223;28;20069;-59
2022/06/01 05:54:17;;;;;;;3.75;2.25;;;22.80;72.30;;;;;;4988865;28;20050;-60
2022/06/01 05:56:42;;;;;;;2.83;1.80;;;22.80;69.40;;;;;;4985906;28;20026;-61
2022/06/01 05:59:08;;;;;;;3.75;2.05;;;23.50;70.30;;;;;;4990516;28;20121;-61
2022/06/01 06:01:34;;;;;;;4.03;2.70;;;23.20;68.80;;;;;;4983389;28;20039;-60
2022/06/01 06:03:59;;;;;;;3.90;2.40;;;23.40;70.80;;;;;;4988466;28;20105;-61
2022/06/01 06:06:25;;;;;;;7.18;2.85;;;24.20;67.90;;;;;;4984494;28;20194;-59
2022/06/01 06:08:59;;;;;;;5.55;2.00;;;25.60;67.10;;;;;;4987564;28;20030;-60
2022/06/01 06:11:27;;;;;;;6.72;2.13;;;24.70;65.40;;;;;;4987846;28;20451;-58
2022/06/01 06:13:53;;;;;;;4.05;2.28;;;23.80;64.20;;;;;;4987658;28;20030;-61
2022/06/01 06:16:19;;;;;;;5.88;2.42;;;23.40;67.00;;;;;;4988245;28;20022;-59
2022/06/01 06:18:45;;;;;;;6.82;2.08;;;23.70;66.80;;;;;;4990132;28;20023;-58
2022/06/01 06:21:11;;;;;;;4.35;2.35;;;24.30;65.60;;;;;;4974427;28;20042;-59
2022/06/01 06:23:37;;;;;;;5.10;2.30;;;24.30;65.00;;;;;;4989856;28;20038;-60
2022/06/01 06:26:03;;;;;;;4.80;2.00;;;24.90;64.80;;;;;;4988318;28;20026;-60
2022/06/01 06:28:29;;;;;;;4.00;2.10;;;25.80;64.00;;;;;;4991067;28;20031;-60
2022/06/01 06:30:55;;;;;;;5.60;1.92;;;24.70;64.80;;;;;;4985112;28;20385;-60
2022/06/01 06:33:21;;;;;;;6.93;2.00;;;23.90;64.40;;;;;;4981260;28;20464;-61
2022/06/01 06:35:56;;;;;;;4.95;1.85;;;23.90;65.90;;;;;;4986590;28;20085;-60
2022/06/01 06:38:22;;;;;;;4.32;2.20;;;24.50;62.40;;;;;;4984774;28;20026;-59
2022/06/01 06:40:48;;;;;;;4.45;2.10;;;24.50;64.10;;;;;;4980762;28;20088;-60
2022/06/01 06:43:13;;;;;;;4.65;2.55;;;25.40;64.10;;;;;;4982178;28;20049;-60
2022/06/01 06:45:38;;;;;;;7.45;2.70;;;25.70;62.10;;;;;;4986716;28;20038;-61
2022/06/01 06:48:04;;;;;;;4.10;2.05;;;25.50;61.10;;;;;;4981752;28;20030;-61
2022/06/01 06:50:30;;;;;;;9.75;2.45;;;25.80;61.40;;;;;;4988261;28;20130;-61
2022/06/01 06:52:55;;;;;;;5.75;2.20;;;25.40;61.00;;;;;;4982419;28;20695;-61
2022/06/01 06:55:21;;;;;;;6.50;2.47;;;25.10;61.60;;;;;;4980010;28;20034;-60
2022/06/01 06:57:46;;;;;;;5.05;2.10;;;26.00;60.30;;;;;;4979079;28;20034;-60
2022/06/01 07:00:13;;;;;;;5.13;2.17;;;24.40;60.50;;;;;;4983643;28;20038;-61
2022/06/01 07:02:38;;;;;;;5.78;2.10;;;24.00;62.70;;;;;;4981746;28;20034;-59
2022/06/01 07:05:04;;;;;;;5.05;2.30;;;24.20;64.50;;;;;;4984381;28;20046;-59
2022/06/01 07:07:30;;;;;;;3.63;1.92;;;23.80;64.10;;;;;;4982343;28;20035;-59
2022/06/01 07:09:56;;;;;;;4.20;1.65;;;24.70;62.70;;;;;;4980246;28;20110;-57
2022/06/01 07:12:22;;;;;;;3.47;1.77;;;24.60;62.40;;;;;;4989366;28;20085;-61
2022/06/01 07:14:47;;;;;;;3.00;1.95;;;24.00;63.20;;;;;;4989448;28;20030;-59
2022/06/01 07:17:13;;;;;;;6.00;2.40;;;22.80;63.50;;;;;;4988754;28;20058;-59
2022/06/01 07:19:38;;;;;;;4.72;2.42;;;21.70;67.50;;;;;;4970510;28;20127;-59
2022/06/01 07:22:04;;;;;;;3.85;1.73;;;21.20;68.30;;;;;;5004414;28;20040;-59
2022/06/01 07:24:29;;;;;;;6.65;2.15;;;21.00;70.20;;;;;;5006222;28;20122;-60
2022/06/01 07:26:55;;;;;;;4.80;1.80;;;20.40;70.80;;;;;;5005533;28;20030;-62
2022/06/01 07:29:21;;;;;;;6.05;2.50;;;20.40;71.00;;;;;;5003707;28;20034;-60
2022/06/01 07:31:47;;;;;;;4.50;2.17;;;20.50;71.00;;;;;;5004670;28;20026;-60
2022/06/01 07:34:13;;;;;;;4.60;1.90;;;20.70;70.90;;;;;;5007851;28;20101;-56
2022/06/01 07:36:39;;;;;;;4.57;2.08;;;21.40;70.00;;;;;;5000704;28;20036;-59
2022/06/01 07:44:39;;;;;;;9.85;2.22;;;22.30;68.60;;;;;;5005323;28;20033;-61
2022/06/01 07:47:06;;;;;;;4.50;2.10;;;22.80;66.90;;;;;;5005364;28;20033;-61
2022/06/01 07:49:31;;;;;;;4.88;1.27;;;23.70;66.20;;;;;;5000998;28;20685;-60
2022/06/01 07:51:57;;;;;;;3.88;1.65;;;24.60;60.60;;;;;;5003596;28;20026;-60
2022/06/01 07:54:23;;;;;;;2.80;1.42;;;24.20;62.00;;;;;;5003440;28;20018;-60
2022/06/01 07:56:49;;;;;;;4.60;1.13;;;24.20;61.60;;;;;;4999410;28;20022;-61
2022/06/01 07:59:15;;;;;;;2.47;1.13;;;24.50;59.80;;;;;;5005165;28;20502;-58
2022/06/01 08:01:41;;;;;;;7.20;1.48;;;25.10;59.80;;;;;;5000163;28;20044;-61
2022/06/01 08:04:07;;;;;;;2.63;1.00;;;25.60;59.10;;;;;;5009222;28;20049;-60
2022/06/01 08:06:35;;;;;;;3.38;0.85;;;25.80;56.40;;;;;;5003450;28;20032;-61
2022/06/01 08:09:01;;;;;;;3.13;1.10;;;25.90;57.20;;;;;;5002429;28;20026;-61
2022/06/01 08:14:14;;;;;;;5.38;1.08;;;24.60;58.90;;;;;;5002421;28;20049;-58
2022/06/01 08:16:40;;;;;;;4.85;1.35;;;24.10;60.10;;;;;;5001078;28;20476;-61
2022/06/01 08:19:07;;;;;;;4.95;1.40;;;24.60;60.20;;;;;;5002788;28;20030;-60
2022/06/01 08:21:34;;;;;;;3.33;1.08;;;25.30;59.00;;;;;;4987580;28;20057;-61
2022/06/01 08:24:00;;;;;;;2.70;1.50;;;26.10;56.70;;;;;;5000527;28;20065;-61
2022/06/01 08:26:25;;;;;;;1.10;0.80;;;26.50;55.20;;;;;;5001338;28;20503;-61
2022/06/01 08:28:51;;;;;;;3.25;1.10;;;25.30;53.50;;;;;;5004203;28;20059;-59
2022/06/01 08:31:17;;;;;;;2.70;1.02;;;25.00;55.30;;;;;;5005148;28;20642;-60
2022/06/01 08:33:43;;;;;;;3.70;1.00;;;25.40;57.20;;;;;;4997325;28;20050;-61
2022/06/01 08:36:09;;;;;;;4.75;1.10;;;25.40;57.60;;;;;;5007812;28;20069;-60
2022/06/01 08:38:34;;;;;;;3.80;1.15;;;25.20;56.50;;;;;;4998352;28;20439;-61
2022/06/01 08:41:03;;;;;;;5.13;1.20;;;24.20;58.20;;;;;;4994514;28;20049;-61
2022/06/01 08:43:47;;;;;;;4.32;1.70;;;24.40;58.60;;;;;;5005681;28;20036;-61
2022/06/01 08:46:14;;;;;;;2.95;1.33;;;24.90;58.20;;;;;;4999555;28;20030;-61
2022/06/01 08:48:44;;;;;;;3.17;1.33;;;25.50;56.00;;;;;;5007126;28;20026;-61
2022/06/01 08:51:11;;;;;;;6.05;1.30;;;25.50;57.50;;;;;;5002493;28;20026;-61
2022/06/01 08:53:37;;;;;;;5.63;2.05;;;26.70;55.70;;;;;;4999601;28;20454;-61
2022/06/01 08:56:13;;;;;;;6.05;1.55;;;26.30;55.70;;;;;;5006816;28;20026;-60
2022/06/01 08:58:53;;;;;;;7.40;1.90;;;26.20;54.70;;;;;;5001924;28;20032;-60
2022/06/01 09:01:56;;;;;;;2.83;1.27;;;25.90;55.80;;;;;;5007309;28;20038;-62
2022/06/01 09:04:43;;;;;;;4.10;1.15;;;26.00;55.60;;;;;;4997395;28;20088;-60
2022/06/01 09:07:25;;;;;;;6.70;1.10;;;26.10;55.50;;;;;;5000978;28;20487;-60
2022/06/01 09:10:08;;;;;;;3.45;0.93;;;27.10;55.90;;;;;;4999412;28;20510;-61
2022/06/01 09:12:35;;;;;;;5.75;1.48;;;27.40;55.00;;;;;;5004582;28;20040;-63
2022/06/01 09:15:18;;;;;;;1.67;1.10;;;27.00;53.20;;;;;;5004405;28;20033;-60
2022/06/01 09:17:44;;;;;;;6.35;1.25;;;27.80;54.00;;;;;;5001063;28;20553;-61
2022/06/01 09:23:00;;;;;;;6.50;1.10;;;25.90;54.30;;;;;;4988072;28;20153;-61
2022/06/01 09:25:32;;;;;;;5.18;1.00;;;26.10;55.20;;;;;;4987548;28;20030;-61
2022/06/01 09:28:02;;;;;;;2.83;1.10;;;26.50;55.10;;;;;;4983003;28;20022;-58
2022/06/01 09:30:39;;;;;;;5.80;1.30;;;25.80;55.60;;;;;;4987973;28;20038;-60
2022/06/01 09:33:25;;;;;;;4.43;1.15;;;25.40;57.70;;;;;;4980230;28;20042;-60
2022/06/01 09:35:57;;;;;;;3.42;0.98;;;25.00;55.60;;;;;;4983442;28;20022;-60
2022/06/01 09:38:47;;;;;;;6.95;1.50;;;24.50;57.00;;;;;;4987546;28;20507;-60
2022/06/01 09:41:24;;;;;;;3.60;1.00;;;23.80;58.50;;;;;;4988065;28;20470;-61
2022/06/01 09:43:55;;;;;;;3.20;0.82;;;24.20;59.10;;;;;;4986253;28;20073;-61
2022/06/01 09:46:32;;;;;;;3.83;1.23;;;25.10;57.40;;;;;;4987244;28;20038;-61
2022/06/01 09:48:59;;;;;;;7.10;1.33;;;25.30;56.90;;;;;;4980357;28;20026;-60
2022/06/01 09:51:25;;;;;;;5.53;1.65;;;25.70;55.60;;;;;;4986691;28;20030;-61
2022/06/01 09:54:12;;;;;;;3.28;1.30;;;25.60;55.30;;;;;;4986693;28;20045;-62
2022/06/01 09:56:45;;;;;;;3.75;1.20;;;24.80;58.80;;;;;;4987281;28;20026;-61
2022/06/01 10:08:14;;;;;;;2.35;1.17;;;25.20;55.40;;;;;;4982574;28;20341;-60
2022/06/01 10:10:54;;;;;;;4.40;1.20;;;24.00;58.70;;;;;;4982956;28;20057;-59
2022/06/01 10:13:34;;;;;;;4.25;1.48;;;23.90;60.30;;;;;;4976169;28;20504;-61
2022/06/01 10:16:12;;;;;;;2.97;0.85;;;23.60;59.40;;;;;;4978809;28;20118;-60
2022/06/01 10:18:41;;;;;;;3.70;1.23;;;23.80;62.10;;;;;;4985183;28;20081;-60
2022/06/01 10:21:11;;;;;;;7.32;1.20;;;24.00;58.80;;;;;;4962886;28;20135;-60
2022/06/01 10:23:47;;;;;;;7.57;2.05;;;23.90;59.10;;;;;;4986546;28;20042;-58
2022/06/01 10:26:23;;;;;;;3.40;1.25;;;23.50;58.80;;;;;;4987443;28;20452;-58
2022/06/01 10:28:56;;;;;;;6.50;1.30;;;22.90;59.20;;;;;;4983743;28;20023;-61
2022/06/01 10:31:31;;;;;;;5.65;1.50;;;22.50;60.40;;;;;;4985960;28;20333;-60
2022/06/01 10:34:18;;;;;;;1.98;1.20;;;22.40;61.80;;;;;;4990142;28;20065;-58
2022/06/01 10:36:59;;;;;;;4.68;1.58;;;22.50;60.40;;;;;;4981521;28;20496;-61
2022/06/01 10:39:46;;;;;;;4.05;1.75;;;22.40;61.60;;;;;;4985850;28;20439;-61
2022/06/01 10:43:16;;;;;;;3.25;1.35;;;22.20;61.00;;;;;;4984783;28;20149;-60
2022/06/01 10:45:15;;;;;;;3.83;1.10;;;22.80;61.10;;;;;;4984296;28;20085;-60
2022/06/01 10:47:56;;;;;;;6.72;1.50;;;22.40;60.00;;;;;;4980546;28;20033;-59
2022/06/01 10:50:30;;;;;;;3.47;1.30;;;22.30;61.00;;;;;;4982926;28;20027;-61
2022/06/01 10:53:20;;;;;;;3.30;1.23;;;22.00;61.60;;;;;;4984747;28;20069;-61
2022/06/01 10:55:48;;;;;;;4.80;1.23;;;21.90;61.90;;;;;;4986241;28;20030;-61
2022/06/01 10:58:22;;;;;;;5.88;1.42;;;21.40;62.10;;;;;;4985326;28;20027;-61
2022/06/01 11:01:03;;;;;;;2.45;1.02;;;21.00;63.90;;;;;;4984909;28;20022;-61
2022/06/01 11:03:45;;;;;;;2.58;1.27;;;21.20;64.60;;;;;;4984386;28;20042;-60
2022/06/01 11:06:45;;;;;;;3.50;1.35;;;22.00;62.80;;;;;;4982597;28;20113;-61
2022/06/01 11:09:27;;;;;;;2.50;0.85;;;23.10;61.00;;;;;;4979247;28;20034;-61
2022/06/01 11:12:01;;;;;;;6.18;1.10;;;23.20;59.60;;;;;;4981545;28;20029;-61
2022/06/01 11:14:46;;;;;;;2.13;0.82;;;23.10;59.20;;;;;;4984546;28;20019;-61
2022/06/01 11:17:40;;;;;;;3.42;1.15;;;23.30;59.50;;;;;;4981644;28;20031;-58
2022/06/01 11:20:27;;;;;;;2.75;1.13;;;22.40;60.10;;;;;;4987107;28;20060;-61
2022/06/01 11:23:15;;;;;;;1.73;0.98;;;22.20;61.20;;;;;;4982004;28;20042;-60
2022/06/01 11:26:22;;;;;;;3.40;1.05;;;22.40;61.30;;;;;;4976856;28;20114;-59
2022/06/01 11:29:23;;;;;;;3.20;1.35;;;22.60;59.00;;;;;;4982170;28;20053;-60
2022/06/01 11:31:52;;;;;;;3.15;1.23;;;22.40;59.00;;;;;;4979697;28;20105;-60
2022/06/01 11:34:34;;;;;;;4.25;1.52;;;22.50;60.40;;;;;;4982249;28;20050;-60
2022/06/01 11:37:13;;;;;;;4.88;1.40;;;22.60;61.00;;;;;;4981231;28;20045;-61
2022/06/01 11:39:52;;;;;;;3.22;1.33;;;22.90;60.60;;;;;;4979608;28;20607;-60
2022/06/01 11:42:29;;;;;;;2.65;1.10;;;22.60;59.40;;;;;;4983592;28;20057;-59
2022/06/01 11:45:06;;;;;;;2.35;1.60;;;21.90;60.90;;;;;;4981068;28;20179;-60
2022/06/01 11:47:51;;;;;;;3.97;1.98;;;21.80;60.60;;;;;;4982393;28;20109;-59
2022/06/01 11:50:43;;;;;;;3.58;1.00;;;21.40;62.30;;;;;;4980891;28;20062;-60
2022/06/01 11:53:13;;;;;;;2.13;1.00;;;21.40;62.30;;;;;;4986685;28;20036;-60
2022/06/01 11:55:38;;;;;;;3.05;1.40;;;21.10;61.80;;;;;;4979686;28;20030;-60
2022/06/01 11:58:04;;;;;;;5.63;1.40;;;21.00;62.40;;;;;;4984814;28;20547;-61
2022/06/01 12:00:39;;;;;;;2.50;1.48;;;21.10;62.80;;;;;;4988734;28;20030;-61
2022/06/01 12:03:19;;;;;;;6.30;1.50;;;21.30;62.00;;;;;;4980684;28;20034;-60
2022/06/01 12:06:14;;;;;;;6.25;1.40;;;21.10;63.50;;;;;;4978623;28;20484;-60
2022/06/01 12:08:49;;;;;;;3.95;1.40;;;21.20;63.80;;;;;;4980376;28;20034;-60
2022/06/01 12:11:38;;;;;;;5.35;1.50;;;21.30;63.30;;;;;;4976885;28;20088;-61
2022/06/01 12:14:37;;;;;;;3.33;1.40;;;21.10;63.30;;;;;;4986700;28;20064;-61
2022/06/01 12:17:17;;;;;;;4.85;1.25;;;21.30;62.60;;;;;;4976531;28;20062;-59
2022/06/01 12:19:48;;;;;;;3.60;1.38;;;20.90;63.00;;;;;;4983221;28;20030;-60
2022/06/01 12:28:31;;;;;;;2.53;1.30;;;21.00;62.70;;;;;;4986145;28;20045;-61
2022/06/01 12:31:16;;;;;;;6.75;1.27;;;21.20;63.30;;;;;;4980394;28;20559;-60
2022/06/01 12:34:00;;;;;;;2.97;0.93;;;21.70;61.80;;;;;;4985101;28;20062;-60
2022/06/01 12:36:27;;;;;;;2.50;1.08;;;21.70;60.50;;;;;;4985341;28;20030;-60
2022/06/01 12:38:53;;;;;;;2.63;1.13;;;21.80;60.10;;;;;;4976645;28;20030;-60
2022/06/01 12:41:24;;;;;;;4.70;1.15;;;22.10;60.80;;;;;;4985513;28;20097;-60
2022/06/01 12:43:58;;;;;;;3.55;1.50;;;22.10;60.40;;;;;;4990448;28;20077;-59
2022/06/01 12:46:30;;;;;;;2.67;1.42;;;22.00;61.00;;;;;;4965850;28;20492;-60
2022/06/01 12:49:33;;;;;;;2.63;1.42;;;21.90;61.80;;;;;;4983903;28;20026;-61
2022/06/01 12:52:06;;;;;;;5.25;1.13;;;22.20;61.00;;;;;;4987702;28;20073;-56
2022/06/01 12:54:36;;;;;;;3.28;1.13;;;22.20;60.40;;;;;;4989687;28;20137;-60
2022/06/01 12:57:04;;;;;;;3.30;1.48;;;22.20;60.00;;;;;;4987218;28;20030;-59
2022/06/01 12:59:33;;;;;;;3.95;1.17;;;21.90;61.10;;;;;;4974345;28;20104;-59
2022/06/01 13:02:01;;;;;;;4.72;2.17;;;21.30;62.10;;;;;;4983794;28;20037;-58
2022/06/01 13:04:27;;;;;;;4.00;1.75;;;21.10;62.80;;;;;;4986190;28;20047;-57
2022/06/01 13:06:54;;;;;;;4.13;1.30;;;20.70;64.90;;;;;;4981552;28;20089;-60
2022/06/01 13:09:28;;;;;;;4.82;1.58;;;20.50;64.80;;;;;;4989731;28;20113;-60
2022/06/01 13:12:04;;;;;;;;;;;20.30;63.80;;;;;;4983560;28;20397;-59
2022/06/01 13:14:33;;;;;;;2.97;1.15;;;20.50;63.50;;;;;;4980809;28;19971;-59
2022/06/01 13:17:11;;;;;;;8.07;1.23;;;20.60;61.80;;;;;;4988102;28;20023;-60
2022/06/01 13:19:39;;;;;;;2.03;1.02;;;20.70;61.90;;;;;;4984096;28;20014;-61
2022/06/01 13:22:14;;;;;;;5.13;1.10;;;20.90;62.20;;;;;;4975304;28;20054;-60
2022/06/01 13:24:45;;;;;;;3.03;1.48;;;21.00;61.50;;;;;;5007118;28;20687;-58
2022/06/01 13:27:11;;;;;;;4.38;1.23;;;21.00;61.80;;;;;;5002801;28;20088;-60
2022/06/01 13:29:48;;;;;;;3.20;1.58;;;21.40;61.40;;;;;;4998291;28;20030;-61
2022/06/01 13:32:17;;;;;;;2.53;1.10;;;21.50;61.00;;;;;;5011176;28;20053;-61
2022/06/01 13:34:52;;;;;;;4.60;1.40;;;21.20;60.60;;;;;;5016497;28;20018;-60
2022/06/01 13:37:21;;;;;;;6.68;1.38;;;21.30;60.90;;;;;;5005638;28;20190;-61
2022/06/01 13:40:08;;;;;;;2.00;1.40;;;20.70;59.50;;;;;;5005394;28;20514;-61